createdAt,value
2022-09-06T06:11:20.799Z,19.10
2022-09-06T06:24:11.481Z,19.10
2022-09-06T06:36:47.572Z,19.50
2022-09-06T06:49:08.732Z,20.00
2022-09-06T07:01:01.509Z,19.90
2022-09-06T07:24:29.032Z,20.00
2022-09-06T07:36:44.904Z,20.20
2022-09-06T07:49:06.481Z,20.60
2022-09-06T08:01:21.652Z,21.00
2022-09-06T08:06:15.230Z,21.10
2022-09-06T08:18:52.837Z,21.60
2022-09-06T08:23:49.324Z,21.70
2022-09-06T08:28:43.048Z,21.90
2022-09-06T08:40:34.160Z,22.40
2022-09-06T08:45:27.799Z,22.50
2022-09-06T08:50:21.697Z,22.70
2022-09-06T08:55:31.744Z,22.90
2022-09-06T09:00:27.411Z,23.10
2022-09-06T09:05:26.149Z,23.30
2022-09-06T09:10:25.222Z,23.40
2022-09-06T09:15:22.385Z,23.70
2022-09-06T09:20:17.943Z,23.90
2022-09-06T09:25:19.154Z,23.90
2022-09-06T09:35:33.665Z,24.40
2022-09-06T09:40:31.981Z,24.70
2022-09-06T09:45:28.261Z,25.00
2022-09-06T09:50:28.989Z,25.00
2022-09-06T09:55:26.583Z,25.30
2022-09-06T10:00:35.948Z,25.50
2022-09-06T10:05:30.084Z,25.80
2022-09-06T10:10:26.898Z,26.00
2022-09-06T10:15:36.165Z,26.30
2022-09-06T10:20:36.310Z,26.60
2022-09-06T10:25:52.544Z,26.90
2022-09-06T10:30:57.626Z,27.30
2022-09-06T10:35:51.169Z,27.40
2022-09-06T10:40:56.746Z,27.70
2022-09-06T10:45:59.779Z,27.90
2022-09-06T10:50:57.338Z,28.10
2022-09-06T10:56:06.253Z,28.50
2022-09-06T11:01:00.806Z,28.70
2022-09-06T11:05:58.665Z,29.00
2022-09-06T11:10:55.698Z,29.50
2022-09-06T11:15:53.116Z,29.50
2022-09-06T11:20:53.655Z,29.80
2022-09-06T11:26:18.500Z,29.90
2022-09-06T11:36:36.698Z,30.20
2022-09-06T11:41:35.350Z,30.70
2022-09-06T11:47:00.452Z,31.10
2022-09-06T11:51:54.291Z,31.30
2022-09-06T11:56:56.394Z,31.50
2022-09-06T12:02:02.463Z,31.60
2022-09-06T12:07:10.637Z,31.30
2022-09-06T12:12:07.150Z,31.70
2022-09-06T12:17:25.832Z,31.30
2022-09-06T12:22:56.249Z,31.70
2022-09-06T12:27:57.462Z,32.20
2022-09-06T12:32:52.344Z,32.30
2022-09-06T12:37:52.640Z,31.80
2022-09-06T12:42:48.420Z,31.40
2022-09-06T12:47:43.632Z,30.90
2022-09-06T12:52:46.236Z,30.30
2022-09-06T12:57:49.027Z,30.70
2022-09-06T13:02:56.810Z,30.70
2022-09-06T13:07:54.410Z,31.00
2022-09-06T13:12:51.150Z,32.10
2022-09-06T13:17:46.731Z,32.90
2022-09-06T13:22:43.532Z,33.00
2022-09-06T13:27:38.192Z,32.40
2022-09-06T13:32:31.883Z,31.10
2022-09-06T13:37:29.009Z,30.20
2022-09-06T13:42:30.762Z,29.80
2022-09-06T13:47:24.825Z,29.80
2022-09-06T13:52:18.400Z,30.90
2022-09-06T13:57:13.461Z,31.50
2022-09-06T14:02:10.134Z,31.40
2022-09-06T14:07:03.873Z,30.60
2022-09-06T14:11:57.560Z,30.00
2022-09-06T14:16:53.060Z,29.50
2022-09-06T14:21:46.623Z,29.20
2022-09-06T14:26:40.567Z,28.80
2022-09-06T14:31:34.434Z,28.30
2022-09-06T14:36:31.737Z,28.20
2022-09-06T14:41:25.343Z,28.10
2022-09-06T14:46:19.686Z,28.20
2022-09-06T14:51:17.912Z,28.20
2022-09-06T14:56:14.251Z,28.00
2022-09-06T15:01:13.205Z,27.90
2022-09-06T15:06:08.283Z,27.90
2022-09-06T15:11:02.303Z,28.10
2022-09-06T15:15:58.089Z,28.20
2022-09-06T15:20:51.970Z,28.10
2022-09-06T15:25:49.963Z,27.90
2022-09-06T15:30:45.473Z,27.70
2022-09-06T15:35:40.933Z,27.40
2022-09-06T15:40:34.901Z,27.20
2022-09-06T15:45:28.587Z,27.10
2022-09-06T15:50:47.667Z,27.00
2022-09-06T15:55:54.152Z,27.30
2022-09-06T16:00:51.084Z,27.00
2022-09-06T16:11:08.088Z,28.30
2022-09-06T16:16:03.156Z,27.40
2022-09-06T16:20:56.676Z,26.60
2022-09-06T16:25:53.501Z,26.20
2022-09-06T16:30:48.524Z,25.90
2022-09-06T16:35:42.395Z,25.80
2022-09-06T16:40:36.652Z,25.70
2022-09-06T16:45:30.453Z,25.60
2022-09-06T16:50:25.467Z,25.50
2022-09-06T16:55:19.108Z,25.20
2022-09-06T17:00:16.055Z,25.10
2022-09-06T17:05:10.600Z,25.00
2022-09-06T17:10:06.807Z,24.70
2022-09-06T17:15:00.279Z,24.50
2022-09-06T17:19:53.881Z,24.50
2022-09-06T17:24:47.628Z,24.40
2022-09-06T17:29:42.685Z,24.20
2022-09-06T17:34:38.313Z,24.10
2022-09-06T17:39:32.104Z,24.10
